Time;durP1;ratioP1;P1;durP2;ratioP2;P2;SDS_P1;SDS_P2;PMS_P1;PMS_P2;Temp;Humidity;BMP_temperature;BMP_pressure;BME280_temperature;BME280_humidity;BME280_pressure;Samples;Min_cycle;Max_cycle;Signal;HPM_P1;HPM_P2
2022/11/01 00:00:05;;;;;;;15.75;4.95;;;;;;;14.01;92.91;100752.56;4982100;28;21016;-80
2022/11/01 00:02:37;;;;;;;9.57;4.82;;;;;;;13.96;93.47;100752.31;4996076;28;20026;-81
2022/11/01 00:05:03;;;;;;;16.67;4.82;;;;;;;14.06;93.04;100746.81;5006288;28;20041;-78
2022/11/01 00:07:29;;;;;;;17.02;4.63;;;;;;;14.09;93.12;100743.03;4997319;28;20046;-80
2022/11/01 00:09:54;;;;;;;18.75;4.95;;;;;;;14.05;93.12;100737.34;4974521;28;20041;-79
2022/11/01 00:12:19;;;;;;;14.93;4.32;;;;;;;14.12;92.51;100740.06;4982618;28;20065;-81
2022/11/01 00:14:45;;;;;;;17.98;4.55;;;;;;;14.06;92.62;100733.78;4992238;28;20038;-79
2022/11/01 00:17:10;;;;;;;15.48;4.65;;;;;;;14.10;92.98;100732.41;4984940;28;20049;-81
2022/11/01 00:19:36;;;;;;;15.82;5.82;;;;;;;14.02;93.82;100724.72;4983226;28;20034;-79
2022/11/01 00:22:01;;;;;;;16.88;5.25;;;;;;;14.12;93.02;100730.44;4993938;28;20567;-80
2022/11/01 00:24:30;;;;;;;11.18;4.60;;;;;;;14.12;93.47;100720.00;4996262;28;20140;-80
2022/11/01 00:26:56;;;;;;;15.05;5.20;;;;;;;14.08;93.82;100723.97;4992940;28;20042;-79
2022/11/01 00:29:21;;;;;;;18.77;4.65;;;;;;;14.01;94.31;100718.69;4988530;28;20101;-82
2022/11/01 00:31:47;;;;;;;17.13;4.30;;;;;;;13.95;94.98;100718.59;4992426;28;20045;-81
2022/11/01 00:34:13;;;;;;;13.65;4.70;;;;;;;13.91;95.30;100712.91;4991579;28;20035;-83
2022/11/01 00:36:43;;;;;;;12.07;4.63;;;;;;;13.90;95.44;100721.75;4985798;28;20046;-81
2022/11/01 00:39:13;;;;;;;20.17;5.25;;;;;;;13.91;95.66;100704.31;4967314;28;20045;-79
2022/11/01 00:41:38;;;;;;;9.60;3.95;;;;;;;14.04;94.92;100712.28;5008009;28;20045;-80
2022/11/01 00:44:04;;;;;;;13.80;4.75;;;;;;;14.09;94.30;100703.91;4996797;28;20040;-80
2022/11/01 00:46:29;;;;;;;17.10;4.28;;;;;;;14.06;94.43;100704.28;4995739;28;20049;-80
2022/11/01 00:48:55;;;;;;;12.07;4.03;;;;;;;14.16;93.89;100694.38;4996870;28;20081;-81
2022/11/01 00:51:20;;;;;;;12.57;4.47;;;;;;;14.12;93.98;100690.53;4998251;28;20096;-82
2022/11/01 00:53:46;;;;;;;18.70;4.72;;;;;;;14.31;93.49;100691.75;4995082;28;20034;-77
2022/11/01 00:56:11;;;;;;;18.05;4.40;;;;;;;14.24;92.97;100693.47;5014294;28;20130;-79
2022/11/01 00:58:37;;;;;;;13.23;4.53;;;;;;;14.40;92.13;100693.28;4993464;28;20041;-81
2022/11/01 01:01:02;;;;;;;13.52;4.25;;;;;;;14.35;91.98;100691.22;4993923;28;20049;-81
2022/11/01 01:03:28;;;;;;;14.35;4.80;;;;;;;14.33;92.55;100685.34;4996868;28;20038;-81
2022/11/01 01:05:54;;;;;;;17.80;4.18;;;;;;;14.35;92.69;100690.41;4996600;28;20107;-79
2022/11/01 01:08:20;;;;;;;17.15;5.55;;;;;;;14.46;92.43;100689.91;4983366;28;20045;-81
2022/11/01 01:10:45;;;;;;;12.45;4.60;;;;;;;14.41;92.73;100690.47;4999305;28;20033;-80
2022/11/01 01:13:12;;;;;;;12.05;4.63;;;;;;;14.42;93.04;100699.09;4994196;28;20555;-80
2022/11/01 01:15:38;;;;;;;14.02;4.00;;;;;;;14.42;93.23;100696.50;4977675;28;20085;-79
2022/11/01 01:18:04;;;;;;;19.52;4.57;;;;;;;14.44;93.79;100699.72;4993887;28;20041;-80
2022/11/01 01:20:30;;;;;;;17.88;4.82;;;;;;;14.44;93.31;100702.34;4977453;28;20125;-79
2022/11/01 01:22:55;;;;;;;12.55;4.40;;;;;;;14.42;93.98;100704.31;4991654;28;20096;-80
2022/11/01 01:25:21;;;;;;;11.60;3.92;;;;;;;14.48;93.42;100703.59;4989896;28;20045;-81
2022/11/01 01:27:47;;;;;;;15.63;4.85;;;;;;;14.44;93.66;100701.53;4997631;28;20044;-80
2022/11/01 01:30:13;;;;;;;14.13;4.38;;;;;;;14.54;93.54;100700.25;4994117;28;20037;-82
2022/11/01 01:32:39;;;;;;;12.13;4.05;;;;;;;14.46;93.58;100702.16;4990651;28;20440;-81
2022/11/01 01:35:05;;;;;;;12.95;4.53;;;;;;;14.49;93.45;100702.59;5002871;28;20037;-80
2022/11/01 01:37:32;;;;;;;14.10;4.00;;;;;;;14.36;94.48;100710.28;5003739;28;20049;-80
2022/11/01 01:39:57;;;;;;;14.25;4.32;;;;;;;14.33;94.74;100710.63;4986687;28;20030;-80
2022/11/01 01:42:34;;;;;;;15.98;4.22;;;;;;;14.47;93.69;100704.59;4984810;28;20093;-81
2022/11/01 01:45:03;;;;;;;12.98;3.60;;;;;;;14.56;93.84;100705.28;4988407;28;20033;-80
2022/11/01 01:47:32;;;;;;;10.25;3.17;;;;;;;14.59;93.41;100703.13;4965780;28;20034;-80
2022/11/01 01:50:30;;;;;;;14.23;2.90;;;;;;;14.75;92.75;100691.66;5002735;28;20034;-80
2022/11/01 01:53:25;;;;;;;8.43;3.22;;;;;;;14.88;92.20;100700.59;4989247;28;20042;-82
2022/11/01 01:55:56;;;;;;;9.50;2.80;;;;;;;14.89;92.06;100703.03;4990650;28;20130;-79
2022/11/01 01:58:28;;;;;;;12.60;3.17;;;;;;;14.90;92.02;100699.44;5005348;28;20089;-79
2022/11/01 02:00:53;;;;;;;8.45;2.70;;;;;;;15.10;91.80;100686.53;4992617;28;20121;-79
2022/11/01 02:03:22;;;;;;;9.88;3.00;;;;;;;15.06;91.61;100690.53;4990421;28;20030;-80
2022/11/01 02:05:55;;;;;;;13.18;3.15;;;;;;;15.14;91.29;100684.38;4981386;28;20122;-78
2022/11/01 02:08:26;;;;;;;8.15;3.13;;;;;;;15.15;91.67;100686.00;5007613;28;20034;-83
2022/11/01 02:11:00;;;;;;;12.75;3.30;;;;;;;15.25;92.07;100683.06;4989076;28;20039;-79
2022/11/01 02:13:27;;;;;;;15.90;3.72;;;;;;;15.29;92.14;100676.44;4998000;28;20029;-79
2022/11/01 02:16:07;;;;;;;7.93;3.03;;;;;;;15.30;91.76;100685.91;4969241;28;20951;-78
2022/11/01 02:18:47;;;;;;;9.10;2.95;;;;;;;15.45;90.94;100689.22;4970455;28;20027;-84
2022/11/01 02:21:37;;;;;;;9.65;2.97;;;;;;;15.41;90.95;100676.72;4979291;28;20039;-80
2022/11/01 02:24:18;;;;;;;9.80;2.75;;;;;;;15.31;91.50;100675.28;5008983;28;20030;-79
2022/11/01 02:27:15;;;;;;;6.50;3.10;;;;;;;15.26;92.39;100677.66;4985794;28;20045;-77
2022/11/01 02:29:59;;;;;;;9.75;2.90;;;;;;;15.29;91.92;100685.09;5007839;28;20117;-79
2022/11/01 02:32:50;;;;;;;7.55;3.00;;;;;;;15.45;91.35;100681.41;4999887;28;20475;-78
2022/11/01 02:35:33;;;;;;;6.10;3.05;;;;;;;15.46;91.68;100675.16;4980253;28;20034;-79
2022/11/01 02:38:08;;;;;;;9.25;2.72;;;;;;;15.37;91.59;100679.75;4979324;28;20057;-79
2022/11/01 02:40:57;;;;;;;10.02;3.33;;;;;;;15.41;92.19;100680.16;5010013;28;20088;-77
2022/11/01 02:43:36;;;;;;;11.90;3.13;;;;;;;15.42;92.16;100673.13;4993299;28;20125;-79
2022/11/01 02:46:59;;;;;;;4.82;2.83;;;;;;;15.34;92.84;100677.50;4992672;28;20058;-79
2022/11/01 02:48:52;;;;;;;11.23;3.20;;;;;;;15.64;91.51;100684.34;4994328;28;20091;-80
2022/11/01 02:51:21;;;;;;;7.15;2.78;;;;;;;15.42;92.13;100694.03;4976624;28;20093;-78
2022/11/01 02:53:46;;;;;;;7.35;2.85;;;;;;;15.38;92.63;100681.34;4992596;28;20065;-80
2022/11/01 02:56:12;;;;;;;8.75;3.20;;;;;;;15.29;93.47;100682.47;5009164;28;20041;-77
2022/11/01 02:58:38;;;;;;;8.50;3.13;;;;;;;15.44;93.17;100686.81;4998002;28;20073;-79
2022/11/01 03:01:13;;;;;;;8.40;3.28;;;;;;;15.56;92.44;100690.53;5008979;28;20415;-76
2022/11/01 03:03:42;;;;;;;7.47;3.05;;;;;;;15.58;92.03;100688.53;5011156;28;20151;-80
2022/11/01 03:06:22;;;;;;;9.27;2.90;;;;;;;15.50;92.42;100691.25;4995246;28;20042;-78
2022/11/01 03:09:01;;;;;;;8.15;3.00;;;;;;;15.47;92.51;100695.06;4999544;28;20113;-84
2022/11/01 03:11:32;;;;;;;9.90;2.45;;;;;;;15.52;92.56;100689.25;4976027;28;20042;-78
2022/11/01 03:14:25;;;;;;;7.80;2.92;;;;;;;15.43;92.77;100695.66;4983936;28;20069;-80
2022/11/01 03:17:03;;;;;;;9.63;3.35;;;;;;;15.40;93.24;100693.41;5005945;28;20050;-77
2022/11/01 03:19:34;;;;;;;11.93;3.28;;;;;;;15.30;93.62;100705.00;4993973;28;20044;-78
2022/11/01 03:22:19;;;;;;;8.10;2.75;;;;;;;15.38;93.41;100699.63;4988560;28;20048;-80
2022/11/01 03:24:54;;;;;;;12.30;3.70;;;;;;;15.42;93.38;100694.81;5002153;28;20565;-80
2022/11/01 03:27:34;;;;;;;8.93;3.25;;;;;;;15.34;93.70;100694.97;5001157;28;20038;-79
2022/11/01 03:30:05;;;;;;;7.32;2.75;;;;;;;15.35;93.71;100702.63;5005948;28;20038;-79
2022/11/01 03:32:44;;;;;;;11.15;3.53;;;;;;;15.48;92.98;100701.09;5003363;28;20088;-79
2022/11/01 03:35:18;;;;;;;7.05;2.78;;;;;;;15.48;92.75;100693.25;4972127;28;20038;-81
2022/11/01 03:37:47;;;;;;;6.78;2.92;;;;;;;15.53;92.71;100698.72;4973394;28;20053;-78
2022/11/01 03:40:16;;;;;;;8.45;3.00;;;;;;;15.64;92.25;100694.78;5010066;28;20045;-77
2022/11/01 03:42:47;;;;;;;9.77;2.72;;;;;;;15.65;92.15;100710.28;4993937;28;20068;-76
2022/11/01 03:45:15;;;;;;;9.68;2.92;;;;;;;15.56;92.06;100701.78;4994585;28;20415;-78
2022/11/01 03:47:41;;;;;;;8.10;2.95;;;;;;;15.63;91.76;100698.38;4997284;28;20044;-80
2022/11/01 03:50:15;;;;;;;9.27;3.08;;;;;;;15.67;91.25;100715.28;5012356;28;20494;-78
2022/11/01 03:52:41;;;;;;;8.10;2.92;;;;;;;15.59;91.33;100713.63;4993123;28;20045;-78
2022/11/01 03:55:17;;;;;;;8.20;2.55;;;;;;;15.66;91.67;100711.88;5009113;28;20037;-78
2022/11/01 03:57:54;;;;;;;13.27;2.78;;;;;;;15.76;90.82;100717.63;5010987;28;20046;-79
2022/11/01 04:00:21;;;;;;;9.52;2.47;;;;;;;15.77;90.32;100721.03;4975985;28;20040;-79
2022/11/01 04:02:48;;;;;;;6.05;2.50;;;;;;;15.73;90.64;100722.38;5014077;28;20042;-77
2022/11/01 04:05:14;;;;;;;8.93;2.95;;;;;;;15.62;91.10;100739.41;5007770;28;20025;-78
2022/11/01 04:07:39;;;;;;;8.38;2.75;;;;;;;15.64;91.23;100734.00;5002753;28;20562;-78
2022/11/01 04:10:05;;;;;;;8.20;2.83;;;;;;;15.61;91.06;100739.59;4997145;28;20041;-79
2022/11/01 04:12:31;;;;;;;16.27;3.35;;;;;;;15.63;90.68;100738.38;5004937;28;20049;-77
2022/11/01 04:20:34;;;;;;;7.97;2.55;;;;;;;15.71;89.34;100753.16;5008067;28;20100;-80
2022/11/01 04:23:02;;;;;;;11.25;2.55;;;;;;;15.67;89.37;100757.94;4996449;28;20058;-82
2022/11/01 04:25:28;;;;;;;6.95;2.20;;;;;;;15.61;88.52;100768.34;4996587;28;20038;-79
2022/11/01 04:27:56;;;;;;;7.15;2.17;;;;;;;15.84;86.46;100768.94;5006549;28;20042;-78
2022/11/01 04:30:28;;;;;;;8.05;1.92;;;;;;;15.82;85.38;100768.31;4993877;28;20057;-81
2022/11/01 04:32:55;;;;;;;6.67;1.90;;;;;;;15.73;86.01;100775.50;5004454;28;20063;-78
2022/11/01 04:35:21;;;;;;;8.77;2.08;;;;;;;15.84;85.02;100778.56;4988907;28;20046;-80
2022/11/01 04:37:46;;;;;;;8.27;2.40;;;;;;;15.75;85.85;100783.97;4970664;28;20058;-80
2022/11/01 04:40:13;;;;;;;8.88;2.05;;;;;;;15.82;85.21;100796.25;5007018;28;20034;-77
2022/11/01 04:42:39;;;;;;;6.65;2.28;;;;;;;15.75;84.65;100797.03;4975016;28;20402;-78
2022/11/01 04:45:07;;;;;;;7.00;2.22;;;;;;;15.72;84.29;100796.56;5011975;28;20080;-77
2022/11/01 04:47:33;;;;;;;9.07;2.80;;;;;;;15.79;84.28;100794.03;5010641;28;20038;-78
2022/11/01 04:49:59;;;;;;;9.93;2.40;;;;;;;15.91;83.38;100802.97;5006064;28;20080;-77
2022/11/01 04:52:25;;;;;;;5.25;1.90;;;;;;;15.76;84.16;100803.06;5001149;28;20184;-78
2022/11/01 04:54:51;;;;;;;7.78;1.98;;;;;;;15.60;84.66;100821.63;4988004;28;20475;-77
2022/11/01 04:57:22;;;;;;;4.57;1.67;;;;;;;15.56;84.42;100829.81;4992028;28;20041;-76
2022/11/01 04:59:52;;;;;;;3.97;1.50;;;;;;;15.59;84.54;100836.47;5007064;28;20113;-80
2022/11/01 05:02:18;;;;;;;5.82;1.73;;;;;;;15.69;83.28;100830.91;4977225;28;20042;-77
2022/11/01 05:04:44;;;;;;;7.40;2.00;;;;;;;15.66;82.73;100850.41;5007963;28;20037;-76
2022/11/01 05:07:10;;;;;;;4.82;1.92;;;;;;;15.73;81.55;100851.31;5003400;28;20038;-77
2022/11/01 05:09:35;;;;;;;15.75;2.42;;;;;;;15.79;80.94;100857.59;4994324;28;20518;-78
2022/11/01 05:12:00;;;;;;;8.38;1.90;;;;;;;15.73;80.93;100863.53;5010914;28;20076;-76
2022/11/01 05:14:26;;;;;;;11.27;1.77;;;;;;;15.69;81.07;100865.72;5004724;28;20042;-77
2022/11/01 05:16:54;;;;;;;10.35;1.50;;;;;;;15.60;81.22;100869.47;4980398;28;20494;-78
2022/11/01 05:19:20;;;;;;;4.13;1.48;;;;;;;15.65;80.92;100879.34;4987521;28;20049;-81
2022/11/01 05:22:13;;;;;;;6.70;1.95;;;;;;;15.52;81.58;100886.06;5007344;28;20034;-83
2022/11/01 05:24:39;;;;;;;5.32;2.20;;;;;;;15.42;82.52;100884.75;4977568;28;20046;-80
2022/11/01 05:27:04;;;;;;;5.13;1.80;;;;;;;15.41;82.69;100904.03;5008288;28;20065;-82
2022/11/01 05:29:30;;;;;;;7.30;2.10;;;;;;;15.48;83.06;100900.50;4996360;28;20046;-82
2022/11/01 05:31:55;;;;;;;5.13;1.70;;;;;;;15.47;82.64;100896.28;5011302;28;20092;-77
2022/11/01 05:34:20;;;;;;;7.40;1.85;;;;;;;15.44;82.71;100914.13;4997523;28;20524;-81
2022/11/01 05:36:46;;;;;;;4.10;1.33;;;;;;;15.38;81.72;100911.25;5015443;28;20049;-80
2022/11/01 05:39:11;;;;;;;6.03;1.50;;;;;;;15.40;80.36;100925.94;4995302;28;20398;-78
2022/11/01 05:41:37;;;;;;;4.97;1.27;;;;;;;15.40;79.31;100931.16;4988019;28;20062;-76
2022/11/01 05:44:03;;;;;;;5.55;1.50;;;;;;;15.26;79.92;100943.28;4994996;28;20038;-80
2022/11/01 05:46:28;;;;;;;5.57;1.30;;;;;;;15.27;79.98;100944.88;5000605;28;20046;-79
2022/11/01 05:48:54;;;;;;;2.05;1.23;;;;;;;15.13;80.50;100954.38;4995960;28;20034;-78
2022/11/01 05:51:19;;;;;;;7.22;1.40;;;;;;;15.12;79.43;100958.75;4985169;28;20039;-77
2022/11/01 05:53:50;;;;;;;2.05;0.70;;;;;;;15.08;76.28;100956.72;4999105;28;20045;-82
2022/11/01 05:56:17;;;;;;;5.30;0.98;;;;;;;15.07;75.00;100961.13;4952047;28;20085;-77
2022/11/01 05:58:43;;;;;;;5.85;0.90;;;;;;;15.02;74.46;100967.88;5004715;28;20030;-79
2022/11/01 06:01:08;;;;;;;5.80;0.80;;;;;;;14.85;74.58;100983.72;4974260;28;20058;-80
2022/11/01 06:03:35;;;;;;;4.68;0.90;;;;;;;14.87;73.96;100981.75;4968745;28;20066;-78
2022/11/01 06:06:01;;;;;;;6.50;0.95;;;;;;;14.82;73.21;100994.50;4988474;28;20047;-77
2022/11/01 06:08:27;;;;;;;8.90;1.00;;;;;;;14.76;71.88;100996.03;5001344;28;20068;-81
2022/11/01 06:11:01;;;;;;;6.53;1.10;;;;;;;14.71;72.23;101005.38;5009733;28;20045;-79
2022/11/01 06:13:26;;;;;;;6.43;0.90;;;;;;;14.59;71.78;101008.44;4976169;28;20034;-77
2022/11/01 06:16:04;;;;;;;3.10;1.08;;;;;;;14.50;72.30;101004.25;4982373;28;20143;-76
2022/11/01 06:18:30;;;;;;;5.78;1.13;;;;;;;14.44;71.18;101023.22;4989979;28;20068;-77
2022/11/01 06:20:56;;;;;;;6.15;0.52;;;;;;;14.36;70.49;101024.09;4988376;28;20049;-79
2022/11/01 06:23:22;;;;;;;3.13;0.63;;;;;;;14.29;71.90;101030.19;4991317;28;20046;-78
2022/11/01 06:25:47;;;;;;;4.68;0.80;;;;;;;14.21;71.64;101028.44;4991073;28;20045;-78
2022/11/01 06:28:13;;;;;;;4.07;0.60;;;;;;;14.21;70.52;101029.25;5010269;28;20038;-78
2022/11/01 06:30:38;;;;;;;3.38;0.65;;;;;;;14.13;71.13;101052.78;4988363;28;20365;-77
2022/11/01 06:33:05;;;;;;;4.25;0.57;;;;;;;14.11;70.59;101052.16;5004140;28;20511;-78
2022/11/01 06:35:32;;;;;;;5.50;1.00;;;;;;;14.11;70.54;101049.56;4995049;28;20057;-79
2022/11/01 06:38:02;;;;;;;3.53;0.73;;;;;;;14.07;70.52;101050.88;5003563;28;20049;-78
2022/11/01 06:40:28;;;;;;;4.18;0.90;;;;;;;13.85;71.39;101068.09;4987701;28;20146;-76
2022/11/01 06:42:58;;;;;;;3.20;0.85;;;;;;;13.92;71.34;101076.03;4985052;28;20034;-79
2022/11/01 06:45:24;;;;;;;5.10;0.80;;;;;;;13.87;72.24;101080.97;4989082;28;20038;-79
2022/11/01 06:47:49;;;;;;;2.35;0.68;;;;;;;13.70;73.39;101091.47;5001444;28;20045;-78
2022/11/01 06:50:15;;;;;;;7.05;0.68;;;;;;;13.70;73.52;101086.25;5004676;28;20681;-78
2022/11/01 06:52:41;;;;;;;2.45;1.15;;;;;;;13.73;73.85;101091.13;4995200;28;20042;-81
2022/11/01 06:55:07;;;;;;;6.30;0.90;;;;;;;13.60;74.26;101093.47;4993207;28;20044;-78
2022/11/01 06:57:32;;;;;;;3.47;1.30;;;;;;;13.57;74.79;101096.41;4997070;28;20077;-76
2022/11/01 06:59:57;;;;;;;2.28;0.88;;;;;;;13.52;75.20;101103.91;5002811;28;20034;-77
2022/11/01 07:02:24;;;;;;;4.93;1.20;;;;;;;13.50;75.26;101119.69;5006467;28;20034;-78
2022/11/01 07:04:50;;;;;;;7.07;1.35;;;;;;;13.45;75.44;101122.00;5009308;28;20041;-80
2022/11/01 07:07:15;;;;;;;6.85;1.75;;;;;;;13.31;75.87;101120.88;5003911;28;20048;-77
2022/11/01 07:09:41;;;;;;;1.95;0.80;;;;;;;13.44;76.00;101130.78;4989548;28;20047;-79
2022/11/01 07:12:06;;;;;;;8.40;1.45;;;;;;;13.40;75.97;101135.50;4989129;28;20105;-80
2022/11/01 07:14:32;;;;;;;6.50;1.40;;;;;;;13.31;75.58;101133.91;4988969;28;20105;-80
2022/11/01 07:16:57;;;;;;;5.03;1.23;;;;;;;13.34;75.68;101146.59;4995066;28;20037;-81
2022/11/01 07:19:22;;;;;;;6.35;3.10;;;;;;;13.29;75.17;101153.25;5005735;28;20119;-80
2022/11/01 07:21:48;;;;;;;4.93;1.08;;;;;;;13.26;75.32;101151.81;4985444;28;20042;-79
2022/11/01 07:24:14;;;;;;;3.00;0.98;;;;;;;13.27;75.33;101144.78;4993423;28;20044;-80
2022/11/01 07:26:39;;;;;;;13.77;6.32;;;;;;;13.20;75.26;101153.28;4991209;28;20042;-76
2022/11/01 07:29:05;;;;;;;7.13;0.93;;;;;;;13.23;74.79;101165.94;5002486;28;20060;-80
2022/11/01 07:31:32;;;;;;;25.52;8.65;;;;;;;13.20;74.49;101173.28;4995083;28;20797;-77
2022/11/01 07:33:58;;;;;;;6.63;1.85;;;;;;;13.18;74.69;101183.03;4996459;28;20045;-77
2022/11/01 07:36:23;;;;;;;20.83;7.35;;;;;;;13.19;74.50;101179.47;4987377;28;20042;-76
2022/11/01 07:38:49;;;;;;;42.45;16.25;;;;;;;13.20;74.44;101181.91;5003136;28;20030;-79
2022/11/01 07:41:14;;;;;;;29.65;6.88;;;;;;;13.30;74.37;101180.91;5008495;28;20038;-77
2022/11/01 07:43:40;;;;;;;17.38;5.93;;;;;;;13.28;74.17;101206.31;4983738;28;20050;-78
2022/11/01 07:46:06;;;;;;;40.03;14.30;;;;;;;13.30;73.47;101202.59;5007007;28;20495;-80
2022/11/01 07:48:32;;;;;;;23.42;9.10;;;;;;;13.29;73.30;101206.16;4997441;28;20034;-77
2022/11/01 07:50:58;;;;;;;35.47;13.70;;;;;;;13.35;72.60;101202.91;4985782;28;20133;-78
2022/11/01 07:53:24;;;;;;;13.45;4.20;;;;;;;13.30;71.89;101212.16;5005854;28;20164;-79
2022/11/01 07:55:50;;;;;;;12.35;3.78;;;;;;;13.34;72.04;101219.53;5014752;28;20057;-78
2022/11/01 07:58:15;;;;;;;8.73;1.00;;;;;;;13.36;71.05;101216.78;4993864;28;20052;-77
2022/11/01 08:00:43;;;;;;;20.25;6.35;;;;;;;13.49;69.23;101227.50;5011262;28;20551;-82
2022/11/01 08:03:14;;;;;;;12.85;6.35;;;;;;;13.72;68.13;101224.22;4991611;28;20050;-77
2022/11/01 08:05:40;;;;;;;5.80;1.40;;;;;;;14.05;66.01;101219.69;4987580;28;20053;-78
2022/11/01 08:08:06;;;;;;;12.07;2.08;;;;;;;14.33;64.65;101230.50;4991123;28;20040;-80
2022/11/01 08:10:34;;;;;;;8.30;0.90;;;;;;;14.56;63.75;101225.34;4993389;28;20041;-82
2022/11/01 08:13:05;;;;;;;5.28;0.77;;;;;;;14.59;62.75;101232.84;4987381;28;20118;-84
2022/11/01 08:15:31;;;;;;;16.15;1.35;;;;;;;14.89;61.24;101237.41;4991060;28;20034;-84
2022/11/01 08:17:57;;;;;;;7.25;1.30;;;;;;;15.07;60.28;101240.56;5008063;28;20720;-83
2022/11/01 08:20:24;;;;;;;11.30;1.20;;;;;;;15.30;59.24;101244.94;5007101;28;20042;-80
2022/11/01 08:22:50;;;;;;;8.25;1.55;;;;;;;15.27;58.33;101237.44;4984554;28;20046;-77
2022/11/01 08:25:16;;;;;;;9.45;1.55;;;;;;;15.41;58.38;101260.19;4980609;28;20424;-81
2022/11/01 08:27:41;;;;;;;14.10;1.25;;;;;;;15.57;57.85;101251.38;4990424;28;20034;-77
2022/11/01 08:30:07;;;;;;;5.05;0.95;;;;;;;15.73;57.28;101256.50;4990848;28;20068;-77
2022/11/01 08:32:33;;;;;;;18.35;3.22;;;;;;;15.79;56.71;101259.41;4989576;28;20042;-79
2022/11/01 08:34:58;;;;;;;8.80;1.35;;;;;;;15.74;56.41;101260.72;4993316;28;20029;-82
2022/11/01 08:37:24;;;;;;;8.68;1.48;;;;;;;15.93;55.92;101266.44;4975131;28;20052;-86
2022/11/01 08:39:53;;;;;;;11.93;1.50;;;;;;;15.98;56.48;101258.06;4985296;28;20033;-77
2022/11/01 08:42:19;;;;;;;11.60;2.63;;;;;;;15.98;55.74;101265.91;4988598;28;20042;-82
2022/11/01 08:44:45;;;;;;;11.73;2.17;;;;;;;16.12;55.14;101265.06;5002726;28;20053;-79
2022/11/01 08:47:11;;;;;;;6.68;1.20;;;;;;;16.05;55.60;101269.38;5001133;28;20032;-80
2022/11/01 08:49:36;;;;;;;9.88;1.48;;;;;;;15.76;56.00;101269.22;5007808;28;20038;-79
2022/11/01 08:52:02;;;;;;;8.48;0.95;;;;;;;15.64;57.36;101272.41;4989821;28;20037;-78
2022/11/01 08:54:29;;;;;;;11.38;1.38;;;;;;;15.73;56.52;101279.19;4990785;28;20034;-78
2022/11/01 08:56:55;;;;;;;6.93;1.20;;;;;;;15.64;57.26;101267.19;4984836;28;20072;-79
2022/11/01 08:59:21;;;;;;;10.30;1.40;;;;;;;15.42;58.13;101276.69;5008381;28;20104;-81
2022/11/01 09:01:46;;;;;;;13.05;1.75;;;;;;;15.26;58.52;101268.00;5004956;28;20069;-81
2022/11/01 09:04:12;;;;;;;11.50;2.78;;;;;;;15.26;59.20;101277.63;5007315;28;20034;-79
2022/11/01 09:06:38;;;;;;;5.35;1.00;;;;;;;15.03;59.38;101275.00;5003885;28;20030;-80
2022/11/01 09:09:04;;;;;;;14.07;1.40;;;;;;;14.87;59.33;101283.78;5008889;28;20736;-80
2022/11/01 09:11:29;;;;;;;4.25;0.80;;;;;;;14.92;60.29;101277.03;4992772;28;20038;-81
2022/11/01 09:13:56;;;;;;;12.00;2.75;;;;;;;14.81;61.00;101281.84;4977183;28;20030;-77
2022/11/01 09:16:23;;;;;;;8.60;1.10;;;;;;;14.84;60.71;101297.97;4993246;28;20726;-81
2022/11/01 09:18:48;;;;;;;7.93;1.25;;;;;;;14.75;62.28;101291.19;4994804;28;20033;-78
2022/11/01 09:21:14;;;;;;;14.50;1.98;;;;;;;14.84;62.79;101292.75;4993590;28;20033;-81
2022/11/01 09:23:39;;;;;;;9.65;1.10;;;;;;;14.93;60.81;101306.56;4971422;28;20041;-79
2022/11/01 09:26:08;;;;;;;10.68;1.38;;;;;;;14.77;61.39;101305.69;4992654;28;20037;-79
2022/11/01 09:28:34;;;;;;;7.00;1.85;;;;;;;14.75;62.66;101312.88;5007230;28;20042;-77
2022/11/01 09:31:05;;;;;;;7.82;1.10;;;;;;;14.71;63.73;101318.59;4989442;28;20034;-81
2022/11/01 09:33:31;;;;;;;5.95;0.88;;;;;;;14.79;63.72;101315.97;4983247;28;20065;-82
2022/11/01 09:35:58;;;;;;;8.23;1.02;;;;;;;14.80;62.95;101317.56;4993437;28;20040;-79
2022/11/01 09:38:23;;;;;;;12.55;1.80;;;;;;;14.84;63.53;101316.25;4971771;28;20044;-80
2022/11/01 09:41:16;;;;;;;11.32;1.17;;;;;;;14.81;63.13;101315.78;4968171;28;20034;-81
2022/11/01 09:43:44;;;;;;;9.93;1.33;;;;;;;14.74;62.95;101326.91;4971164;28;20056;-79
2022/11/01 09:46:15;;;;;;;8.93;1.20;;;;;;;14.72;64.10;101330.66;4984962;28;20046;-79
2022/11/01 09:48:42;;;;;;;7.13;1.10;;;;;;;14.70;63.13;101324.81;4987580;28;20046;-80
2022/11/01 09:51:19;;;;;;;9.95;1.38;;;;;;;14.75;63.46;101328.53;4974603;28;20487;-79
2022/11/01 09:53:46;;;;;;;12.38;1.38;;;;;;;14.65;64.24;101314.06;4990509;28;20034;-78
2022/11/01 09:56:27;;;;;;;8.75;1.35;;;;;;;14.67;63.86;101318.13;4991599;28;20103;-77
2022/11/01 09:58:52;;;;;;;11.40;1.75;;;;;;;14.64;63.27;101321.09;4996246;28;20025;-79
2022/11/01 10:01:38;;;;;;;9.32;1.90;;;;;;;14.75;62.94;101328.53;5005203;28;20041;-81
2022/11/01 10:04:09;;;;;;;9.38;1.25;;;;;;;14.80;64.01;101325.41;4989633;28;20084;-81
2022/11/01 10:06:42;;;;;;;11.95;1.40;;;;;;;14.74;62.06;101313.03;4988147;28;20051;-77
2022/11/01 10:09:07;;;;;;;;;;;;;;;14.77;62.84;101318.72;5009413;28;20443;-79
2022/11/01 10:12:06;;;;;;;21.00;1.60;;;;;;;14.65;62.66;101320.09;4975446;28;19964;-82
2022/11/01 10:14:47;;;;;;;10.18;1.38;;;;;;;14.68;64.02;101326.78;4992693;28;20451;-79
2022/11/01 10:17:21;;;;;;;9.38;1.30;;;;;;;14.68;64.04;101343.25;4997119;28;20048;-83
2022/11/01 10:19:48;;;;;;;7.53;1.17;;;;;;;14.77;63.94;101339.63;4990308;28;20030;-81
2022/11/01 10:22:46;;;;;;;10.90;2.28;;;;;;;14.77;64.51;101337.00;4993950;28;20049;-82
2022/11/01 10:25:29;;;;;;;13.32;3.00;;;;;;;14.78;63.67;101343.84;4987595;28;20077;-80
2022/11/01 10:27:57;;;;;;;10.15;1.38;;;;;;;14.78;64.48;101336.00;5007704;28;20026;-79
2022/11/01 10:30:23;;;;;;;7.30;1.20;;;;;;;14.81;64.97;101337.47;4972555;28;20054;-76
2022/11/01 10:32:48;;;;;;;11.13;1.60;;;;;;;14.89;64.68;101334.81;4986159;28;20096;-79
2022/11/01 10:35:22;;;;;;;13.10;1.60;;;;;;;14.85;64.53;101345.78;4971689;28;20034;-82
2022/11/01 10:37:58;;;;;;;13.75;1.48;;;;;;;14.97;64.33;101341.78;4987560;28;20053;-78
2022/11/01 10:40:31;;;;;;;9.27;1.08;;;;;;;14.85;63.27;101343.19;4991170;28;20050;-79
2022/11/01 10:42:57;;;;;;;9.52;1.02;;;;;;;14.87;63.65;101346.44;4991866;28;20038;-82
2022/11/01 10:45:22;;;;;;;11.45;1.05;;;;;;;14.78;63.65;101354.28;5009288;28;20095;-82
2022/11/01 10:47:55;;;;;;;10.05;1.90;;;;;;;14.83;63.75;101361.63;5013616;28;20084;-82
2022/11/01 10:50:24;;;;;;;8.07;1.20;;;;;;;14.77;64.08;101364.91;4995046;28;20084;-80
2022/11/01 10:52:53;;;;;;;12.52;2.15;;;;;;;14.81;63.07;101357.56;4995320;28;20045;-81
2022/11/01 10:55:25;;;;;;;10.80;1.10;;;;;;;14.76;63.91;101371.09;4988920;28;20029;-77
2022/11/01 10:58:12;;;;;;;19.08;2.97;;;;;;;14.70;63.08;101362.16;4991204;28;20450;-80
2022/11/01 11:00:41;;;;;;;12.32;1.48;;;;;;;14.95;62.82;101357.63;4987246;28;20050;-80
2022/11/01 11:03:20;;;;;;;13.15;2.03;;;;;;;14.97;62.37;101350.47;5005901;28;20037;-79
2022/11/01 11:05:47;;;;;;;14.07;1.70;;;;;;;14.88;63.45;101356.72;4994855;28;20030;-79
2022/11/01 11:08:15;;;;;;;10.52;1.83;;;;;;;14.87;63.53;101352.47;4978696;28;20475;-82
2022/11/01 11:10:43;;;;;;;13.80;1.65;;;;;;;14.89;63.77;101360.13;4990967;28;20520;-79
2022/11/01 11:13:09;;;;;;;9.90;1.15;;;;;;;14.87;64.23;101344.63;5002026;28;20046;-80
2022/11/01 11:16:03;;;;;;;14.30;1.40;;;;;;;14.88;62.97;101359.31;5000856;28;20042;-80
2022/11/01 11:18:31;;;;;;;13.98;1.40;;;;;;;14.94;63.57;101358.63;5008930;28;20137;-79
2022/11/01 11:21:00;;;;;;;9.00;1.33;;;;;;;14.83;63.90;101369.44;4992353;28;20119;-77
2022/11/01 11:23:28;;;;;;;12.13;1.27;;;;;;;14.86;63.78;101358.69;5006527;28;20037;-79
2022/11/01 11:26:04;;;;;;;7.05;1.13;;;;;;;14.83;64.42;101352.97;4987087;28;20074;-77
2022/11/01 11:28:33;;;;;;;12.38;1.58;;;;;;;14.94;64.87;101363.03;4980459;28;20045;-78
2022/11/01 11:31:30;;;;;;;15.48;1.55;;;;;;;14.92;64.10;101360.59;5009721;28;20061;-78
2022/11/01 11:34:00;;;;;;;15.30;1.92;;;;;;;15.03;63.51;101363.78;4995487;28;20038;-78
2022/11/01 11:36:30;;;;;;;9.50;1.40;;;;;;;14.95;63.69;101359.44;4996909;28;20686;-78